Startpagina
METAR-TAF:

METAR-TAF

Vliegvelden :

Bujumbura, Burundi

Luchthaven Bujumbura

breedte: 03-19S, lengte: 029-19E, hoogte: 782 m

Actueel weer

Dit bericht is 16 uur en het 28 minuten geleden gemaakt, om 12:00 UTC
Wind 12 kt uit het zuiden
Temperatuur 31°C
Vochtigheid 59%
Druk 1011 hPa
Zicht 10 km of meer
Weinig wolken op 2500 ft, Stapelwolken.
Verspreide wolken op 10000 ft

METAR: HBBA 131200Z 18012KT 9999 FEW025TCU SCT100 31/22 Q1011 NOSIG

Tijdstip: 06:28 (04:28 UTC)

Verwachting

Dit bericht is 7 uur en het 28 minuten geleden gemaakt, om 21:00 UTC
Verwachting geldig van 14 om 00 UTC tot 15 om 06 UTC
Wind kt uit het noorden
Zicht 10 km of meer
geen wolken onder 1500 m en geen cumulonimbus

TAF: HBBA 132100Z 1400/1506 00000KT CAVOK BECMG1407/1409 18010KT 9999 FEW030 FEW030 SCT100 BECMG1417/1419 00000KT CAVOK

Waarnemingen en weersverwachtingen van meer dan 4000 vliegvelden (METAR en TAF).

De beschikbare stations zijn de gele en rode punten op de kaart.

Ga met uw muis naar het station om de naam te zien.

Klik dan om waarnemingen en weersverwachtingen te zien.

kaart wijzigen: klik op de groene knoppen met een zwart kruis om in te zoomen, op de groene knop met een streepje om uit te zoomen of op de groene pijlen voor aangrenzende kaarten.


METAR-TAF: